地図

経路データ

SID SEASON NUMBER BASIN SUBBASIN NAME ISO_TIME NATURE LAT LON WMO_WIND WMO_PRES WMO_AGENCY TRACK_TYPE DIST2LAND LANDFALL IFLAG USA_AGENCY USA_ATCF_ID USA_LAT USA_LON USA_RECORD USA_STATUS USA_WIND USA_PRES USA_SSHS USA_R34_NE USA_R34_SE USA_R34_SW USA_R34_NW USA_R50_NE USA_R50_SE USA_R50_SW USA_R50_NW USA_R64_NE USA_R64_SE USA_R64_SW USA_R64_NW USA_POCI USA_ROCI USA_RMW USA_EYE TOKYO_LAT TOKYO_LON TOKYO_GRADE TOKYO_WIND TOKYO_PRES TOKYO_R50_DIR TOKYO_R50_LONG TOKYO_R50_SHORT TOKYO_R30_DIR TOKYO_R30_LONG TOKYO_R30_SHORT TOKYO_LAND CMA_LAT CMA_LON CMA_CAT CMA_WIND CMA_PRES HKO_LAT HKO_LON HKO_CAT HKO_WIND HKO_PRES NEWDELHI_LAT NEWDELHI_LON NEWDELHI_GRADE NEWDELHI_WIND NEWDELHI_PRES NEWDELHI_CI NEWDELHI_DP NEWDELHI_POCI REUNION_LAT REUNION_LON REUNION_TYPE REUNION_WIND REUNION_PRES REUNION_TNUM REUNION_CI REUNION_RMW REUNION_R34_NE REUNION_R34_SE REUNION_R34_SW REUNION_R34_NW REUNION_R50_NE REUNION_R50_SE REUNION_R50_SW REUNION_R50_NW REUNION_R64_NE REUNION_R64_SE REUNION_R64_SW REUNION_R64_NW BOM_LAT BOM_LON BOM_TYPE BOM_WIND BOM_PRES BOM_TNUM BOM_CI BOM_RMW BOM_R34_NE BOM_R34_SE BOM_R34_SW BOM_R34_NW BOM_R50_NE BOM_R50_SE BOM_R50_SW BOM_R50_NW BOM_R64_NE BOM_R64_SE BOM_R64_SW BOM_R64_NW BOM_ROCI BOM_POCI BOM_EYE BOM_POS_METHOD BOM_PRES_METHOD NADI_LAT NADI_LON NADI_CAT NADI_WIND NADI_PRES WELLINGTON_LAT WELLINGTON_LON WELLINGTON_WIND WELLINGTON_PRES DS824_LAT DS824_LON DS824_STAGE DS824_WIND DS824_PRES TD9636_LAT TD9636_LON TD9636_STAGE TD9636_WIND TD9636_PRES TD9635_LAT TD9635_LON TD9635_WIND TD9635_PRES TD9635_ROCI NEUMANN_LAT NEUMANN_LON NEUMANN_CLASS NEUMANN_WIND NEUMANN_PRES MLC_LAT MLC_LON MLC_CLASS MLC_WIND MLC_PRES USA_GUST BOM_GUST BOM_GUST_PER REUNION_GUST REUNION_GUST_PER USA_SEAHGT USA_SEARAD_NE USA_SEARAD_SE USA_SEARAD_SW USA_SEARAD_NW STORM_SPEED STORM_DIR
1939334N07139 1939 81 WP MM NOT_NAMED 1939-11-30 10:00:00 NR 7.00000 138.900 main 935 931 __________O___ -1 7.00000 138.900 7 4 288
1939334N07139 1939 81 WP MM NOT_NAMED 1939-11-30 12:00:00 NR 7.04012 138.773 main 931 931 __________P___ -1 7.04012 138.773 7 5 285
1939334N07139 1939 81 WP MM NOT_NAMED 1939-11-30 15:00:00 NR 7.09780 138.530 main 931 920 __________P___ -1 7.09780 138.530 7 6 280
1939334N07139 1939 81 WP MM NOT_NAMED 1939-11-30 18:00:00 NR 7.14904 138.152 main 920 912 __________P___ -1 7.14904 138.152 7 10 275
1939334N07139 1939 81 WP MM NOT_NAMED 1939-11-30 21:00:00 NR 7.18964 137.560 main 912 905 __________P___ -1 7.18964 137.560 7 13 273
1939334N07139 1939 81 WP MM NOT_NAMED 1939-11-30 22:00:00 NR 7.20000 137.300 main 905 893 __________O___ -1 7.20000 137.300 7 17 272
1939334N07139 1939 81 WP MM NOT_NAMED 1939-12-01 00:00:00 NR 7.21698 136.680 main 893 885 __________P___ -1 7.21698 136.680 7 21 272
1939334N07139 1939 81 WP MM NOT_NAMED 1939-12-01 03:00:00 NR 7.25359 135.553 main 896 821 __________P___ -1 7.25359 135.553 7 24 273
1939334N07139 1939 81 WP MM NOT_NAMED 1939-12-01 06:00:00 NR 7.33910 134.293 main 821 706 __________P___ -1 7.33910 134.293 7 25 276
1939334N07139 1939 81 WP MM NOT_NAMED 1939-12-01 09:00:00 NR 7.51438 133.012 main 706 672 __________P___ -1 7.51438 133.012 7 26 279
1939334N07139 1939 81 WP MM NOT_NAMED 1939-12-01 10:00:00 NR 7.60000 132.600 main 661 573 __________O___ -1 7.60000 132.600 7 25 286
1939334N07139 1939 81 WP MM NOT_NAMED 1939-12-01 12:00:00 NR 7.86272 131.792 main 573 447 __________P___ -1 7.86272 131.792 7 25 291
1939334N07139 1939 81 WP MM NOT_NAMED 1939-12-01 15:00:00 NR 8.35242 130.609 main 447 346 __________P___ -1 8.35242 130.609 7 25 294
1939334N07139 1939 81 WP MM NOT_NAMED 1939-12-01 18:00:00 NR 8.88101 129.531 main 346 261 __________P___ -1 8.88101 129.531 7 22 297
1939334N07139 1939 81 WP MM NOT_NAMED 1939-12-01 21:00:00 NR 9.36379 128.641 main 261 243 __________P___ -1 9.36379 128.641 7 19 299
1939334N07139 1939 81 WP MM NOT_NAMED 1939-12-01 22:00:00 NR 9.50000 128.400 main 243 205 __________O___ -1 9.50000 128.400 7 13 298
1939334N07139 1939 81 WP MM NOT_NAMED 1939-12-02 00:00:00 NR 9.68095 128.044 main 205 182 __________P___ -1 9.68095 128.044 7 9 299
1939334N07139 1939 81 WP MM NOT_NAMED 1939-12-02 03:00:00 NR 9.87809 127.706 main 182 168 __________P___ -1 9.87809 127.706 7 6 303
1939334N07139 1939 81 WP MM NOT_NAMED 1939-12-02 06:00:00 NR 10.0220 127.513 main 168 165 __________P___ -1 10.0220 127.513 7 4 309
1939334N07139 1939 81 WP MM NOT_NAMED 1939-12-02 09:00:00 NR 10.1526 127.360 main 172 162 __________P___ -1 10.1526 127.360 7 4 310
1939334N07139 1939 81 WP MM NOT_NAMED 1939-12-02 10:00:00 NR 10.2000 127.300 main 162 150 __________O___ -1 10.2000 127.300 4 6 304
1939334N07139 1939 81 WP MM NOT_NAMED 1939-12-02 12:00:00 NR 10.3329 127.090 main 150 122 __________P___ -1 10.3329 127.090 4 8 303
1939334N07139 1939 81 WP MM NOT_NAMED 1939-12-02 15:00:00 NR 10.5386 126.761 main 122 73 __________P___ -1 10.5386 126.761 4 8 302
1939334N07139 1939 81 WP MM NOT_NAMED 1939-12-02 18:00:00 NR 10.7437 126.428 main 73 34 __________P___ -1 10.7437 126.428 4 8 302
1939334N07139 1939 81 WP MM NOT_NAMED 1939-12-02 21:00:00 NR 10.9388 126.104 main 34 21 __________P___ -1 10.9388 126.104 4 7 301
1939334N07139 1939 81 WP MM NOT_NAMED 1939-12-02 22:00:00 NR 11.0000 126.000 main 21 10 __________O___ -1 11.0000 126.000 4 7 299
1939334N07139 1939 81 WP MM NOT_NAMED 1939-12-03 00:00:00 NR 11.0981 125.813 main 10 0 __________P___ -1 11.0981 125.813 4 6 298
1939334N07139 1939 81 WP MM NOT_NAMED 1939-12-03 03:00:00 NR 11.2325 125.545 main 0 0 __________P___ -1 11.2325 125.545 4 6 298
1939334N07139 1939 81 WP MM NOT_NAMED 1939-12-03 06:00:00 NR 11.3711 125.279 main 0 0 __________P___ -1 11.3711 125.279 4 6 299
1939334N07139 1939 81 WP MM NOT_NAMED 1939-12-03 09:00:00 NR 11.5356 124.999 main 0 0 __________P___ -1 11.5356 124.999 4 7 302
1939334N07139 1939 81 WP MM NOT_NAMED 1939-12-03 10:00:00 NR 11.6000 124.900 main 10 10 __________O___ -1 11.6000 124.900 4 8 305
1939334N07139 1939 81 WP MM NOT_NAMED 1939-12-03 12:00:00 NR 11.7681 124.658 main 15 15 __________P___ -1 11.7681 124.658 4 9 306
1939334N07139 1939 81 WP MM NOT_NAMED 1939-12-03 15:00:00 NR 12.0520 124.275 main 15 11 __________P___ -1 12.0520 124.275 4 9 308
1939334N07139 1939 81 WP MM NOT_NAMED 1939-12-03 18:00:00 NR 12.3460 123.905 main 15 15 __________P___ -1 12.3460 123.905 4 9 310
1939334N07139 1939 81 WP MM NOT_NAMED 1939-12-03 21:00:00 NR 12.6191 123.587 main 24 24 __________P___ -1 12.6191 123.587 4 8 312
1939334N07139 1939 81 WP MM NOT_NAMED 1939-12-03 22:00:00 NR 12.7000 123.500 main 24 22 __________O___ -1 12.7000 123.500 4 6 317
1939334N07139 1939 81 WP MM NOT_NAMED 1939-12-04 00:00:00 NR 12.8336 123.379 main 22 0 __________P___ -1 12.8336 123.379 4 5 322
1939334N07139 1939 81 WP MM NOT_NAMED 1939-12-04 03:00:00 NR 13.0027 123.260 main 0 0 __________P___ -1 13.0027 123.260 4 4 329
1939334N07139 1939 81 WP MM NOT_NAMED 1939-12-04 06:00:00 NR 13.1427 123.187 main 10 10 __________P___ -1 13.1427 123.187 4 3 333
1939334N07139 1939 81 WP MM NOT_NAMED 1939-12-04 09:00:00 NR 13.2628 123.124 main 15 15 __________P___ -1 13.2628 123.124 4 3 330
1939334N07139 1939 81 WP MM NOT_NAMED 1939-12-04 10:00:00 NR 13.3000 123.100 main 15 15 __________O___ -1 13.3000 123.100 4 3 317
1939334N07139 1939 81 WP MM NOT_NAMED 1939-12-04 12:00:00 NR 13.3702 123.017 main 15 11 __________P___ -1 13.3702 123.017 4 3 308
1939334N07139 1939 81 WP MM NOT_NAMED 1939-12-04 15:00:00 NR 13.4628 122.886 main 11 10 __________P___ -1 13.4628 122.886 4 3 306
1939334N07139 1939 81 WP MM NOT_NAMED 1939-12-04 18:00:00 NR 13.5539 122.756 main 10 10 __________P___ -1 13.5539 122.756 4 3 309
1939334N07139 1939 81 WP MM NOT_NAMED 1939-12-04 21:00:00 NR 13.6591 122.636 main 10 10 __________P___ -1 13.6591 122.636 4 3 313
1939334N07139 1939 81 WP MM NOT_NAMED 1939-12-04 22:00:00 NR 13.7000 122.600 main 10 0 __________O___ -1 13.7000 122.600 4 4 321
1939334N07139 1939 81 WP MM NOT_NAMED 1939-12-05 00:00:00 NR 13.7995 122.523 main 0 0 __________P___ -1 13.7995 122.523 4 4 326
1939334N07139 1939 81 WP MM NOT_NAMED 1939-12-05 03:00:00 NR 13.9677 122.420 main 0 0 __________P___ -1 13.9677 122.420 4 4 333
1939334N07139 1939 81 WP MM NOT_NAMED 1939-12-05 06:00:00 NR 14.1504 122.342 main 10 10 __________P___ -1 14.1504 122.342 4 4 343
1939334N07139 1939 81 WP MM NOT_NAMED 1939-12-05 09:00:00 NR 14.3380 122.302 main 15 15 __________P___ -1 14.3380 122.302 4 4 350
1939334N07139 1939 81 WP MM NOT_NAMED 1939-12-05 10:00:00 NR 14.4000 122.300 main 24 24 __________O___ -1 14.4000 122.300 4 4 8
1939334N07139 1939 81 WP MM NOT_NAMED 1939-12-05 12:00:00 NR 14.5218 122.313 main 35 35 __________P___ -1 14.5218 122.313 4 4 12
1939334N07139 1939 81 WP MM NOT_NAMED 1939-12-05 15:00:00 NR 14.6994 122.368 main 55 55 __________P___ -1 14.6994 122.368 4 4 22
1939334N07139 1939 81 WP MM NOT_NAMED 1939-12-05 18:00:00 NR 14.8727 122.456 main 78 78 __________P___ -1 14.8727 122.456 4 4 29
1939334N07139 1939 81 WP MM NOT_NAMED 1939-12-05 21:00:00 NR 15.0433 122.563 main 89 100 __________P___ -1 15.0433 122.563 4 4 31
1939334N07139 1939 81 WP MM NOT_NAMED 1939-12-05 22:00:00 NR 15.1000 122.600 main 100 __________O___ -1 15.1000 122.600 4 4 34

デジタル台風データ・検索

IBTrACS Databaseについて

本データベースは、米国NOAAが公開する1842年以降の世界の熱帯低気圧のベストトラックデータアーカイブInternational Best Track Archive for Climate Stewardship (IBTrACS)を、ウェブで閲覧しやすい形式に変換したものです。

最終更新日:2021-11-26